createdAt,value
2022-08-28T00:00:40.224Z,99.90
2022-08-28T00:03:07.996Z,99.90
2022-08-28T00:05:35.078Z,99.90
2022-08-28T00:08:02.343Z,99.90
2022-08-28T00:10:30.643Z,99.90
2022-08-28T00:12:59.366Z,99.90
2022-08-28T00:15:27.971Z,99.90
2022-08-28T00:17:55.186Z,99.90
2022-08-28T00:20:23.175Z,99.90
2022-08-28T00:22:50.627Z,99.90
2022-08-28T00:25:18.769Z,99.90
2022-08-28T00:27:55.594Z,99.90
2022-08-28T00:30:26.059Z,99.90
2022-08-28T00:32:53.938Z,99.90
2022-08-28T00:35:21.801Z,99.90
2022-08-28T00:37:48.716Z,99.90
2022-08-28T00:40:18.675Z,99.90
2022-08-28T00:42:56.686Z,99.90
2022-08-28T00:45:25.836Z,99.90
2022-08-28T00:47:52.879Z,99.90
2022-08-28T00:50:20.975Z,99.90
2022-08-28T00:52:49.343Z,99.90
2022-08-28T00:55:17.685Z,99.90
2022-08-28T00:57:49.206Z,99.90
2022-08-28T01:00:18.467Z,99.90
2022-08-28T01:02:47.161Z,99.90
2022-08-28T01:05:15.200Z,99.90
2022-08-28T01:07:42.440Z,99.90
2022-08-28T01:10:11.241Z,99.90
2022-08-28T01:12:38.571Z,99.90
2022-08-28T01:15:14.084Z,99.90
2022-08-28T01:17:43.641Z,99.90
2022-08-28T01:20:15.196Z,99.90
2022-08-28T01:22:46.041Z,99.90
2022-08-28T01:25:16.805Z,99.90
2022-08-28T01:27:43.926Z,99.90
2022-08-28T01:30:12.249Z,99.90
2022-08-28T01:32:41.247Z,99.90
2022-08-28T01:35:09.963Z,99.90
2022-08-28T01:37:37.239Z,99.90
2022-08-28T01:40:05.182Z,99.90
2022-08-28T01:42:38.668Z,99.90
2022-08-28T01:45:07.211Z,99.90
2022-08-28T01:47:34.176Z,99.90
2022-08-28T01:50:01.124Z,99.90
2022-08-28T01:52:29.095Z,99.90
2022-08-28T01:54:55.952Z,99.90
2022-08-28T01:57:25.977Z,99.90
2022-08-28T01:59:54.563Z,99.90
2022-08-28T02:02:22.232Z,99.90
2022-08-28T02:04:49.180Z,99.90
2022-08-28T02:07:16.985Z,99.90
2022-08-28T02:09:43.889Z,99.90
2022-08-28T02:12:10.914Z,99.90
2022-08-28T02:14:38.674Z,99.90
2022-08-28T02:17:06.995Z,99.90
2022-08-28T02:19:33.981Z,99.90
2022-08-28T02:22:00.955Z,99.90
2022-08-28T02:24:27.940Z,99.90
2022-08-28T02:26:54.864Z,99.90
2022-08-28T02:29:22.004Z,99.90
2022-08-28T02:31:48.922Z,99.90
2022-08-28T02:34:17.205Z,99.90
2022-08-28T02:36:44.082Z,99.90
2022-08-28T02:39:11.056Z,99.90
2022-08-28T02:41:38.010Z,99.90
2022-08-28T02:44:05.024Z,99.90
2022-08-28T02:46:32.076Z,99.90
2022-08-28T02:48:59.238Z,99.90
2022-08-28T02:51:30.272Z,99.90
2022-08-28T02:53:57.159Z,99.90
2022-08-28T02:56:24.601Z,99.90
2022-08-28T02:58:51.577Z,99.90
2022-08-28T03:01:21.388Z,99.90
2022-08-28T03:03:48.943Z,99.90
2022-08-28T03:06:15.920Z,99.90
2022-08-28T03:08:44.227Z,99.90
2022-08-28T03:11:12.049Z,99.90
2022-08-28T03:13:39.003Z,99.90
2022-08-28T03:16:06.177Z,99.90
2022-08-28T03:18:33.278Z,99.90
2022-08-28T03:21:00.281Z,99.90
2022-08-28T03:23:27.315Z,99.90
2022-08-28T03:25:57.356Z,99.90
2022-08-28T03:28:24.824Z,99.90
2022-08-28T03:30:52.039Z,99.90
2022-08-28T03:33:19.044Z,99.90
2022-08-28T03:35:46.033Z,99.90
2022-08-28T03:38:13.125Z,99.90
2022-08-28T03:40:42.451Z,99.90
2022-08-28T03:43:11.638Z,99.90
2022-08-28T03:45:38.655Z,99.90
2022-08-28T03:48:05.729Z,99.90
2022-08-28T03:50:32.782Z,99.90
2022-08-28T03:52:59.699Z,99.90
2022-08-28T03:55:26.633Z,99.90
2022-08-28T03:57:53.886Z,99.90
2022-08-28T04:00:22.135Z,99.90
2022-08-28T04:02:49.087Z,99.90
2022-08-28T04:05:17.777Z,99.90
2022-08-28T04:07:45.074Z,99.90
2022-08-28T04:10:12.269Z,99.90
2022-08-28T04:12:39.336Z,99.90
2022-08-28T04:15:07.208Z,99.90
2022-08-28T04:17:36.915Z,99.90
2022-08-28T04:20:04.271Z,99.90
2022-08-28T04:22:31.214Z,99.90
2022-08-28T04:24:58.151Z,99.90
2022-08-28T04:27:25.063Z,99.90
2022-08-28T04:29:52.063Z,99.90
2022-08-28T04:32:19.034Z,99.90
2022-08-28T04:34:47.531Z,99.90
2022-08-28T04:37:15.145Z,99.90
2022-08-28T04:39:42.200Z,99.90
2022-08-28T04:42:09.268Z,99.90
2022-08-28T04:44:36.167Z,99.90
2022-08-28T04:47:03.097Z,99.90
2022-08-28T04:49:33.501Z,99.90
2022-08-28T04:52:02.181Z,99.90
2022-08-28T04:54:29.179Z,99.90
2022-08-28T04:56:56.106Z,99.90
2022-08-28T04:59:23.979Z,99.90
2022-08-28T05:01:51.872Z,99.90
2022-08-28T05:04:19.693Z,99.90
2022-08-28T05:06:47.114Z,99.90
2022-08-28T05:09:16.407Z,99.90
2022-08-28T05:11:44.367Z,99.90
2022-08-28T05:14:15.737Z,99.90
2022-08-28T05:16:44.611Z,99.90
2022-08-28T05:19:11.851Z,99.90
2022-08-28T05:21:39.274Z,99.90
2022-08-28T05:24:06.888Z,99.90
2022-08-28T05:26:36.275Z,99.90
2022-08-28T05:29:07.340Z,99.90
2022-08-28T05:31:34.920Z,99.90
2022-08-28T05:34:02.210Z,99.90
2022-08-28T05:36:32.952Z,99.90
2022-08-28T05:39:01.098Z,99.90
2022-08-28T05:41:30.133Z,99.90
2022-08-28T05:43:59.266Z,99.90
2022-08-28T05:46:28.110Z,99.90
2022-08-28T05:48:55.555Z,99.90
2022-08-28T05:51:23.299Z,99.90
2022-08-28T05:53:51.716Z,97.60
2022-08-28T05:56:19.873Z,95.10
2022-08-28T05:58:47.002Z,91.60
2022-08-28T06:01:16.776Z,88.80
2022-08-28T06:03:44.798Z,81.30
2022-08-28T06:06:12.551Z,73.70
2022-08-28T06:08:58.349Z,71.50
2022-08-28T06:11:26.297Z,68.00
2022-08-28T06:13:53.755Z,66.20
2022-08-28T06:16:22.382Z,63.40
2022-08-28T06:18:50.934Z,61.80
2022-08-28T06:21:17.951Z,59.80
2022-08-28T06:23:44.958Z,58.50
2022-08-28T06:26:11.925Z,57.80
2022-08-28T06:28:38.852Z,57.00
2022-08-28T06:31:24.391Z,55.70
2022-08-28T06:33:54.375Z,55.90
2022-08-28T06:36:22.020Z,54.60
2022-08-28T06:38:48.964Z,54.40
2022-08-28T06:41:16.242Z,53.60
2022-08-28T06:43:43.165Z,53.10
2022-08-28T06:46:10.161Z,52.00
2022-08-28T06:48:37.163Z,52.70
2022-08-28T06:51:06.845Z,51.80
2022-08-28T06:53:33.787Z,52.00
2022-08-28T06:56:02.188Z,51.90
2022-08-28T06:58:29.267Z,52.10
2022-08-28T07:01:03.942Z,51.20
2022-08-28T07:03:30.932Z,49.70
2022-08-28T07:05:58.091Z,49.50
2022-08-28T07:08:27.754Z,50.00
2022-08-28T07:10:55.007Z,50.60
2022-08-28T07:13:22.183Z,49.00
2022-08-28T07:15:49.518Z,48.00
2022-08-28T07:18:17.598Z,50.10
2022-08-28T07:20:44.814Z,50.10
2022-08-28T07:23:11.760Z,49.50
2022-08-28T07:25:41.440Z,49.80
2022-08-28T07:28:09.089Z,48.30
2022-08-28T07:30:36.162Z,48.80
2022-08-28T07:33:03.244Z,49.30
2022-08-28T07:35:30.159Z,49.10
2022-08-28T07:37:57.966Z,48.30
2022-08-28T07:40:25.180Z,47.70
2022-08-28T07:43:11.905Z,50.40
2022-08-28T07:45:39.355Z,50.50
2022-08-28T07:48:11.327Z,49.70
2022-08-28T07:50:38.656Z,50.20
2022-08-28T07:53:08.542Z,50.50
2022-08-28T07:55:35.602Z,51.10
2022-08-28T07:58:03.920Z,52.90
2022-08-28T08:00:36.954Z,53.70
2022-08-28T08:03:04.019Z,55.40
2022-08-28T08:05:31.025Z,56.40
2022-08-28T08:07:58.035Z,58.70
2022-08-28T08:10:24.963Z,61.40
2022-08-28T08:12:52.467Z,62.90
2022-08-28T08:15:22.294Z,63.60
2022-08-28T08:17:49.330Z,65.10
2022-08-28T08:20:16.340Z,67.10
2022-08-28T08:22:43.269Z,68.80
2022-08-28T08:25:10.203Z,69.20
2022-08-28T08:27:42.375Z,67.10
2022-08-28T08:30:11.480Z,68.00
2022-08-28T08:32:40.285Z,67.80
2022-08-28T08:35:07.759Z,68.80
2022-08-28T08:37:34.804Z,67.00
2022-08-28T08:40:02.267Z,67.10
2022-08-28T08:42:30.364Z,65.40
2022-08-28T08:44:58.858Z,63.50
2022-08-28T08:47:30.629Z,65.80
2022-08-28T08:50:00.968Z,65.50
2022-08-28T08:52:31.392Z,64.20
2022-08-28T08:55:07.841Z,64.40
2022-08-28T08:57:37.660Z,62.10
2022-08-28T09:00:06.517Z,61.30
2022-08-28T09:02:37.281Z,59.10
2022-08-28T09:05:10.196Z,60.30
2022-08-28T09:07:39.208Z,60.80
2022-08-28T09:10:07.704Z,59.80
2022-08-28T09:12:42.476Z,60.00
2022-08-28T09:15:12.872Z,60.50
2022-08-28T09:17:42.516Z,60.30
2022-08-28T09:20:12.345Z,62.20
2022-08-28T09:22:42.842Z,60.10
2022-08-28T09:25:11.124Z,57.90
2022-08-28T09:27:44.275Z,57.90
2022-08-28T09:30:11.747Z,58.10
2022-08-28T09:32:41.564Z,58.30
2022-08-28T09:35:15.557Z,57.50
2022-08-28T09:37:43.877Z,58.10
2022-08-28T09:40:19.404Z,57.60
2022-08-28T09:43:21.030Z,56.50
2022-08-28T09:45:52.605Z,57.50
2022-08-28T09:48:21.045Z,59.90
2022-08-28T09:50:58.197Z,60.80
2022-08-28T09:53:28.211Z,59.90
2022-08-28T09:56:16.851Z,60.30
2022-08-28T09:58:45.402Z,60.20
2022-08-28T10:01:27.229Z,60.10
2022-08-28T10:03:59.083Z,57.10
2022-08-28T10:06:28.762Z,58.70
2022-08-28T10:09:08.904Z,61.30
2022-08-28T10:11:44.210Z,60.00
2022-08-28T10:14:16.310Z,60.70
2022-08-28T10:16:47.069Z,59.90
2022-08-28T10:19:21.460Z,60.50
2022-08-28T10:21:53.644Z,57.80
2022-08-28T10:24:29.761Z,57.80
2022-08-28T10:27:03.223Z,55.30
2022-08-28T10:29:35.016Z,56.20
2022-08-28T10:32:12.893Z,56.70
2022-08-28T10:34:47.684Z,55.30
2022-08-28T10:37:22.788Z,54.70
2022-08-28T10:39:51.877Z,55.00
2022-08-28T10:42:23.269Z,54.50
2022-08-28T10:44:57.812Z,53.90
2022-08-28T10:47:29.514Z,54.30
2022-08-28T10:50:02.027Z,54.90
2022-08-28T10:52:32.356Z,57.10
2022-08-28T10:55:03.264Z,56.10
2022-08-28T10:57:39.221Z,51.50
2022-08-28T11:00:10.687Z,50.10
2022-08-28T11:02:39.062Z,52.60
2022-08-28T11:05:06.452Z,54.40
2022-08-28T11:07:36.495Z,53.90
2022-08-28T11:10:18.181Z,55.40
2022-08-28T11:12:45.463Z,55.30
2022-08-28T11:15:38.100Z,56.60
2022-08-28T11:18:25.325Z,56.40
2022-08-28T11:20:56.760Z,54.40
2022-08-28T11:23:30.825Z,54.40
2022-08-28T11:25:59.492Z,54.50
2022-08-28T11:28:41.398Z,54.20
2022-08-28T11:31:29.384Z,53.20
2022-08-28T11:34:01.009Z,52.80
2022-08-28T11:36:49.985Z,52.20
2022-08-28T11:39:21.838Z,53.80
2022-08-28T11:42:03.570Z,56.00
2022-08-28T11:44:42.509Z,58.30
2022-08-28T11:47:28.166Z,55.30
2022-08-28T11:49:55.234Z,54.20
2022-08-28T11:52:35.635Z,55.70
2022-08-28T11:55:10.388Z,55.30
2022-08-28T11:57:46.360Z,55.30
2022-08-28T12:00:23.966Z,58.00
2022-08-28T12:02:53.139Z,52.50
2022-08-28T12:05:38.966Z,54.00
2022-08-28T12:08:06.232Z,55.30
2022-08-28T12:10:53.083Z,56.10
2022-08-28T12:13:34.866Z,53.70
2022-08-28T12:16:06.358Z,55.50
2022-08-28T12:18:51.343Z,50.50
2022-08-28T12:21:19.860Z,49.90
2022-08-28T12:23:59.002Z,47.50
2022-08-28T12:26:30.068Z,50.30
2022-08-28T12:28:58.515Z,50.70
2022-08-28T12:31:52.522Z,49.40
2022-08-28T12:34:22.479Z,47.70
2022-08-28T12:36:56.072Z,48.50
2022-08-28T12:39:23.553Z,47.30
2022-08-28T12:41:52.095Z,47.70
2022-08-28T12:44:22.900Z,49.50
2022-08-28T12:46:49.871Z,52.10
2022-08-28T12:49:28.565Z,50.40
2022-08-28T12:52:10.727Z,50.40
2022-08-28T12:54:39.708Z,50.10
2022-08-28T12:57:11.132Z,49.10
2022-08-28T12:59:39.234Z,51.60
2022-08-28T13:02:07.913Z,50.40
2022-08-28T13:04:36.616Z,50.30
2022-08-28T13:07:07.253Z,51.20
2022-08-28T13:09:34.907Z,51.60
2022-08-28T13:12:02.452Z,50.70
2022-08-28T13:14:39.783Z,50.80
2022-08-28T13:17:07.470Z,50.30
2022-08-28T13:19:35.084Z,51.40
2022-08-28T13:22:02.691Z,49.70
2022-08-28T13:24:37.810Z,49.70
2022-08-28T13:27:07.180Z,49.90
2022-08-28T13:29:35.209Z,49.90
2022-08-28T13:32:04.700Z,47.60
2022-08-28T13:34:32.399Z,50.20
2022-08-28T13:37:04.147Z,51.50
2022-08-28T13:39:35.384Z,50.60
2022-08-28T13:42:05.978Z,52.00
2022-08-28T13:44:34.135Z,53.80
2022-08-28T13:47:01.631Z,54.10
2022-08-28T13:49:30.242Z,54.50
2022-08-28T13:51:58.558Z,54.20
2022-08-28T13:54:25.557Z,53.90
2022-08-28T13:56:55.325Z,52.20
2022-08-28T13:59:23.468Z,52.40
2022-08-28T14:02:11.274Z,51.20
2022-08-28T14:04:40.182Z,52.30
2022-08-28T14:07:08.029Z,53.20
2022-08-28T14:09:35.093Z,51.90
2022-08-28T14:12:03.698Z,51.90
2022-08-28T14:14:32.103Z,52.60
2022-08-28T14:16:59.286Z,51.80
2022-08-28T14:19:26.335Z,53.50
2022-08-28T14:21:55.517Z,55.60
2022-08-28T14:24:24.717Z,54.80
2022-08-28T14:26:51.990Z,56.20
2022-08-28T14:29:19.226Z,57.80
2022-08-28T14:31:46.268Z,59.70
2022-08-28T14:34:14.206Z,59.40
2022-08-28T14:36:41.581Z,58.90
2022-08-28T14:39:10.842Z,59.50
2022-08-28T14:41:37.935Z,59.30
2022-08-28T14:44:05.279Z,59.90
2022-08-28T14:46:36.713Z,59.80
2022-08-28T14:49:06.755Z,61.30
2022-08-28T14:51:34.432Z,58.60
2022-08-28T14:54:01.912Z,57.80
2022-08-28T14:56:32.026Z,59.90
2022-08-28T14:58:59.822Z,59.00
2022-08-28T15:01:39.498Z,57.30
2022-08-28T15:04:09.156Z,57.50
2022-08-28T15:06:36.736Z,55.70
2022-08-28T15:09:03.850Z,54.90
2022-08-28T15:11:32.277Z,54.10
2022-08-28T15:13:59.281Z,54.20
2022-08-28T15:16:30.109Z,53.10
2022-08-28T15:18:58.268Z,52.20
2022-08-28T15:21:26.064Z,53.00
2022-08-28T15:23:54.084Z,55.00
2022-08-28T15:26:22.476Z,56.40
2022-08-28T15:28:51.408Z,57.00
2022-08-28T15:31:18.404Z,56.40
2022-08-28T15:33:46.096Z,56.50
2022-08-28T15:36:15.760Z,57.20
2022-08-28T15:39:01.411Z,57.10
2022-08-28T15:41:29.374Z,58.90
2022-08-28T15:44:01.770Z,58.10
2022-08-28T15:46:30.398Z,59.20
2022-08-28T15:48:57.892Z,58.00
2022-08-28T15:51:26.076Z,57.90
2022-08-28T15:53:53.332Z,57.30
2022-08-28T15:56:23.716Z,55.20
2022-08-28T15:58:51.911Z,55.10
2022-08-28T16:01:20.563Z,54.30
2022-08-28T16:03:47.742Z,54.30
2022-08-28T16:06:16.251Z,54.10
2022-08-28T16:08:43.698Z,53.70
2022-08-28T16:11:11.905Z,53.70
2022-08-28T16:13:38.806Z,53.00
2022-08-28T16:16:05.771Z,51.90
2022-08-28T16:18:34.087Z,51.90
2022-08-28T16:21:04.798Z,53.00
2022-08-28T16:23:32.623Z,53.10
2022-08-28T16:26:00.073Z,54.10
2022-08-28T16:28:28.088Z,56.10
2022-08-28T16:30:56.448Z,55.10
2022-08-28T16:33:23.884Z,54.90
2022-08-28T16:35:56.047Z,55.40
2022-08-28T16:38:23.613Z,57.00
2022-08-28T16:40:50.935Z,58.10
2022-08-28T16:43:18.092Z,59.30
2022-08-28T16:45:46.029Z,61.90
2022-08-28T16:48:16.369Z,62.50
2022-08-28T16:50:44.199Z,63.30
2022-08-28T16:53:13.273Z,63.80
2022-08-28T16:55:40.613Z,64.20
2022-08-28T16:58:07.643Z,63.80
2022-08-28T17:00:34.863Z,63.80
2022-08-28T17:03:13.033Z,62.40
2022-08-28T17:05:40.420Z,62.80
2022-08-28T17:08:08.987Z,62.30
2022-08-28T17:10:37.270Z,63.90
2022-08-28T17:13:04.426Z,63.70
2022-08-28T17:15:31.389Z,65.10
2022-08-28T17:17:58.465Z,65.70
2022-08-28T17:21:00.885Z,65.90
2022-08-28T17:23:28.380Z,64.50
2022-08-28T17:25:57.402Z,65.30
2022-08-28T17:28:27.449Z,64.10
2022-08-28T17:30:55.105Z,64.30
2022-08-28T17:33:22.544Z,64.40
2022-08-28T17:35:50.288Z,64.70
2022-08-28T17:38:19.209Z,65.70
2022-08-28T17:40:46.425Z,65.00
2022-08-28T17:43:15.123Z,64.20
2022-08-28T17:45:42.163Z,63.50
2022-08-28T17:48:09.175Z,64.30
2022-08-28T17:50:36.118Z,67.90
2022-08-28T17:53:03.116Z,69.80
2022-08-28T17:55:33.418Z,70.90
2022-08-28T17:58:00.430Z,72.90
2022-08-28T18:00:31.925Z,74.30
2022-08-28T18:02:59.112Z,75.00
2022-08-28T18:05:26.205Z,75.00
2022-08-28T18:07:53.619Z,74.70
2022-08-28T18:10:21.671Z,74.40
2022-08-28T18:12:48.639Z,74.30
2022-08-28T18:15:15.972Z,74.90
2022-08-28T18:17:48.045Z,76.50
2022-08-28T18:20:15.167Z,77.10
2022-08-28T18:22:42.164Z,77.90
2022-08-28T18:25:29.456Z,78.40
2022-08-28T18:27:56.832Z,79.10
2022-08-28T18:30:23.974Z,78.90
2022-08-28T18:32:52.551Z,79.50
2022-08-28T18:35:19.724Z,79.70
2022-08-28T18:37:59.043Z,80.10
2022-08-28T18:40:26.231Z,81.00
2022-08-28T18:42:53.213Z,81.70
2022-08-28T18:45:20.351Z,81.50
2022-08-28T18:47:47.423Z,81.10
2022-08-28T18:50:15.834Z,82.10
2022-08-28T18:54:04.742Z,82.60
2022-08-28T18:56:33.543Z,84.90
2022-08-28T18:59:00.698Z,85.10
2022-08-28T19:01:28.530Z,84.90
2022-08-28T19:03:55.887Z,85.60
2022-08-28T19:06:22.867Z,85.90
2022-08-28T19:08:49.899Z,85.90
2022-08-28T19:11:18.194Z,86.00
2022-08-28T19:15:23.562Z,86.10
2022-08-28T19:20:22.456Z,86.70
2022-08-28T19:22:49.659Z,87.30
2022-08-28T19:25:22.335Z,87.50
2022-08-28T19:27:59.262Z,87.70
2022-08-28T19:30:27.911Z,87.90
2022-08-28T19:32:55.122Z,87.70
2022-08-28T19:35:24.620Z,87.70
2022-08-28T19:37:51.944Z,88.10
2022-08-28T19:40:20.006Z,89.00
2022-08-28T19:42:47.023Z,89.70
2022-08-28T19:45:14.895Z,90.20
2022-08-28T19:47:42.021Z,90.80
2022-08-28T19:50:09.812Z,91.00
2022-08-28T19:52:39.502Z,91.40
2022-08-28T19:55:07.873Z,91.70
2022-08-28T19:57:35.156Z,91.80
2022-08-28T20:00:02.400Z,91.90
2022-08-28T20:02:31.689Z,92.30
2022-08-28T20:05:01.808Z,92.50
2022-08-28T20:07:29.380Z,92.70
2022-08-28T20:09:57.660Z,92.90
2022-08-28T20:12:24.729Z,93.00
2022-08-28T20:14:51.737Z,93.10
2022-08-28T20:17:18.767Z,93.30
2022-08-28T20:19:46.252Z,93.60
2022-08-28T20:22:13.489Z,94.30
2022-08-28T20:24:40.884Z,94.60
2022-08-28T20:27:09.683Z,94.70
2022-08-28T20:29:36.729Z,94.80
2022-08-28T20:32:04.180Z,94.90
2022-08-28T20:34:31.971Z,95.00
2022-08-28T20:36:59.046Z,95.00
2022-08-28T20:39:25.987Z,95.20
2022-08-28T20:41:52.931Z,95.40
2022-08-28T20:44:21.709Z,95.70
2022-08-28T20:46:51.360Z,95.80
2022-08-28T20:49:22.043Z,96.30
2022-08-28T20:52:01.094Z,96.60
2022-08-28T20:54:29.762Z,96.60
2022-08-28T20:56:57.946Z,96.70
2022-08-28T20:59:34.364Z,96.70
2022-08-28T21:02:07.634Z,96.90
2022-08-28T21:04:37.097Z,96.80
2022-08-28T21:07:05.956Z,97.10
2022-08-28T21:10:03.131Z,97.40
2022-08-28T21:12:19.939Z,97.60
2022-08-28T21:14:51.319Z,98.00
2022-08-28T21:17:24.357Z,98.30
2022-08-28T21:19:57.235Z,98.20
2022-08-28T21:22:24.241Z,98.60
2022-08-28T21:24:51.280Z,99.40
2022-08-28T21:27:18.626Z,99.80
2022-08-28T21:29:46.154Z,99.90
2022-08-28T21:32:14.605Z,99.90
2022-08-28T21:34:45.452Z,99.90
2022-08-28T21:37:12.394Z,99.90
2022-08-28T21:39:39.322Z,99.90
2022-08-28T21:42:06.342Z,99.90
2022-08-28T21:44:33.511Z,99.90
2022-08-28T21:47:00.509Z,99.90
2022-08-28T21:49:28.884Z,99.90
2022-08-28T21:51:55.787Z,99.90
2022-08-28T21:54:23.078Z,99.90
2022-08-28T21:56:56.253Z,99.90
2022-08-28T21:59:25.831Z,99.90
2022-08-28T22:01:58.352Z,99.80
2022-08-28T22:04:25.306Z,99.60
2022-08-28T22:06:53.657Z,99.70
2022-08-28T22:09:20.553Z,99.60
2022-08-28T22:11:47.623Z,99.80
2022-08-28T22:14:14.563Z,99.90
2022-08-28T22:16:41.574Z,99.90
2022-08-28T22:19:08.515Z,99.90
2022-08-28T22:21:53.944Z,99.90
2022-08-28T22:24:23.331Z,99.90
2022-08-28T22:26:50.231Z,99.90
2022-08-28T22:29:24.293Z,99.90
2022-08-28T22:31:51.587Z,99.90
2022-08-28T22:34:18.564Z,99.90
2022-08-28T22:36:45.516Z,99.90
2022-08-28T22:39:12.386Z,99.90
2022-08-28T22:41:42.015Z,99.90
2022-08-28T22:44:08.956Z,99.90
2022-08-28T22:46:36.116Z,99.90
2022-08-28T22:49:03.261Z,99.90
2022-08-28T22:51:30.165Z,99.90
2022-08-28T22:53:57.190Z,99.90
2022-08-28T22:56:24.786Z,99.90
2022-08-28T22:58:53.056Z,99.90
2022-08-28T23:01:22.249Z,99.90
2022-08-28T23:03:49.687Z,99.90
2022-08-28T23:06:16.942Z,99.90
2022-08-28T23:08:44.170Z,99.90
2022-08-28T23:11:11.074Z,99.90
2022-08-28T23:13:38.527Z,99.90
2022-08-28T23:16:07.193Z,99.90
2022-08-28T23:18:51.908Z,99.90
2022-08-28T23:21:23.804Z,99.90
2022-08-28T23:23:53.428Z,99.90
2022-08-28T23:26:20.562Z,99.90
2022-08-28T23:28:47.829Z,99.90
2022-08-28T23:31:16.114Z,99.90
2022-08-28T23:33:42.995Z,99.90
2022-08-28T23:36:10.200Z,99.90
2022-08-28T23:38:39.668Z,99.90
2022-08-28T23:41:10.261Z,99.90
2022-08-28T23:43:37.577Z,99.90
2022-08-28T23:46:05.046Z,99.90
2022-08-28T23:48:33.604Z,99.90
2022-08-28T23:51:02.621Z,99.90
2022-08-28T23:53:30.633Z,99.90
2022-08-28T23:55:57.657Z,99.90
2022-08-28T23:58:31.707Z,99.90
